METAR / TAF

La lista dei METAR e dei TAF non è pensata per essere utilizzata per i briefing meteorologici (in particolare per ragioni tecniche non è possibile garantire la sua costante disponibilità e un aggiornamento continuo). Per i briefing meteorologici si consiglia di utilizzare lo skybriefing di Skyguide oppure il TAMSI (piattaforma  di MeteoSvizzera per l’autobriefing per i professionisti dell’aviazione – per informazioni utilizzare il formulario di contatto).

 

METAR Svizzera

METAR     LSZH 241220Z VRB04KT 9999 FEW035 13/03 Q1033 NOSIG=
METAR     LSZH 241250Z 07005KT 340V110 9999 FEW040 13/03 Q1033
               NOSIG=
METAR     LSGG 241220Z 04021G33KT 9999 FEW040 BKN270 14/05 Q1029
               NOSIG=
METAR     LSGG 241250Z 04020G33KT 9999 FEW042 BKN270 15/04 Q1029
               NOSIG=
METAR     LFSB 241230Z 01011KT 9999 SCT040 15/05 Q1032 NOSIG=
METAR     LSZB 241220Z VRB07KT 9999 FEW022 BKN034 12/04 Q1031 NOSIG=
METAR     LSZB 241250Z 04009KT 350V090 9999 BKN033 12/04 Q1031
               NOSIG=
METAR     LSZA 241220Z 01019KT CAVOK 23/00 Q1021 NOSIG=
METAR     LSZA 241250Z 01019KT CAVOK 24/01 Q1021 NOSIG=
METAR     LSZG 241220Z 08016KT 9999 SCT041 14/05 Q1032 NOSIG=
METAR     LSZG 241250Z 09016KT 9999 SCT042 14/05 Q1032 NOSIG=
METAR     LSZR 241220Z VRB03KT 9999 SCT050 13/05 Q1033 NOSIG RMK J=
METAR     LSZR 241250Z VRB03KT 9999 SCT050 13/04 Q1033 NOSIG RMK J=
METAR     LSGS 241220Z 25020KT 9999 FEW070 18/06 Q1024=
METAR     LSGS 241250Z 25020KT 9999 FEW070 19/06 Q1025=
METAR     LSGC 241220Z 04015KT 9999 BKN018 08/02 Q1031=
METAR     LSGC 241250Z 05015KT 9999 SCT020 SCT027 09/03 Q1031=
METAR     LSZC 241220Z AUTO 29005KT 230V020 9999 FEW033 SCT038
               13/06 Q1032=
METAR     LSZC 241250Z 36006KT 270V050 9999 SCT046 13/05 Q1032=
METAR     LSZL 241220Z 11017KT 070V140 CAVOK 24/M01 Q1021 RMK BLU=
METAR     LSZL 241250Z 11016KT 080V140 CAVOK 23/01 Q1021 RMK BLU=
METAR     LSZS 241220Z 30009KT 250V340 CAVOK 09/M04 Q1028 RMK M=
METAR     LSZS 241250Z 32008KT 280V040 CAVOK 09/M04 Q1028 RMK N=
METAR RRB LSMA 241220Z 03013KT 350V100 9999 FEW030 13/06 Q1032 RMK
               BLU+=
METAR     LSMA 241250Z 02011KT 350V070 9999 FEW032 13/06 Q1032 RMK
               BLU+=
METAR     LSMD 241220Z VRB04KT 9999 FEW038 SCT044 13/03 Q1033 RMK
               BLU+=
METAR     LSMD 241250Z VRB07KT 9999 SCT046 14/03 Q1033 RMK BLU+=
METAR     LSME 241220Z 04009KT 010V070 9999 FEW038 SCT048 13/06
               Q1032 RMK BLU+=
METAR     LSME 241250Z 03009KT 350V060 9999 FEW035 13/05 Q1032 RMK
               BLU+=
METAR RRA LSMM 241220Z 07014G24KT 340V110 9999 SCT035 11/05 Q1031
               RMK BLU+=
METAR     LSMM 241250Z 05014G30KT 350V110 9999 SCT035 11/05 Q1030
               RMK BLU+=
METAR     LSMP 241220Z 05018KT 020V080 9999 SCT039 13/05 Q1031 RMK
               BLU+=
METAR     LSMP 241250Z 06016G26KT 020V080 9999 FEW039 14/05 Q1031
               RMK BLU+=
METAR     LSMS 241220Z 25020KT 9999 FEW070 18/06 Q1024 RMK BLU+=
METAR     LSMS 241250Z 25020KT 9999 FEW070 19/06 Q1025 RMK BLU+=
aggiornamento lunedì 24 settembre 2018 ore 15:09

TAF Svizzera

TAF     LSZH 241125Z 2412/2518 06006KT 9999 FEW030 BKN045
             TX15/2414Z TN03/2505Z TX15/2514Z TEMPO 2412/2416
             09008KT BECMG 2417/2419 CAVOK BECMG 2509/2511 05012KT
             TEMPO 2510/2514 06015G27KT=
TAF     LSGG 241125Z 2412/2518 05020G35KT 9999 FEW035 TX17/2415Z
             TN08/2505Z TX17/2515Z BECMG 2417/2419 CAVOK BECMG
             2511/2513 04015G25KT=
TAF     LFSB 241100Z 2412/2512 36010KT 9999 SCT040 PROB40 TEMPO
             2414/2417 36014G24KT BECMG 2420/2422 CAVOK TEMPO
             2420/2501 VRB03KT TEMPO 2500/2503 MIFG TEMPO
             2503/2507 BCFG PROB40 TEMPO 2505/2507 0500 BKN001=
TAF     LSGS 241125Z 2412/2421 24016KT 9999 FEW070 BECMG 2417/2419
             VRB03KT CAVOK=
TAF     LSZA 241125Z 2412/2421 01015KT CAVOK TEMPO 2412/2416
             01020G33KT BECMG 2418/2420 01007KT=
TAF     LSZB 241125Z 2412/2421 04008KT 9999 SCT035 BECMG 2417/2419
             CAVOK=
TAF     LSZG 241125Z 2412/2421 08013KT 9999 BKN030 BECMG 2415/2418
             CAVOK PROB30 TEMPO 2412/2416 05015G25KT=
TAF     LSZL 241125Z 2412/2421 11014KT CAVOK TEMPO 2412/2418
             10018G33KT=
TAF     LSZR 241125Z 2412/2421 02005KT 9999 SCT035 BKN045 BECMG
             2417/2420 CAVOK=
TAF     LSGC 241125Z 2412/2421 04015G25KT 9999 BKN013 BECMG
             2417/2419 06010KT CAVOK=
TAF     LSZC 241125Z 2412/2421 32008KT 9999 BKN030 BECMG 2415/2418
             CAVOK=
TAF     LSZS 241125Z 2412/2421 31013KT 9999 FEW060 TX10/2414Z BECMG
             2415/2418 VRB03KT CAVOK=
TAF     LSMA 240925Z 2410/2516 03012KT 9999 FEW020 BKN030 BECMG
             2415/2418 CAVOK BECMG 2419/2422 VRB03KT BECMG
             2509/2512 03010KT=
TAF     LSMD 240925Z 2410/2516 09008KT 9999 FEW025 BKN033 BECMG
             2416/2419 CAVOK=
TAF     LSME 240925Z 2410/2516 03010KT 9999 FEW025 BKN040 BECMG
             2417/2420 CAVOK BECMG 2419/2422 VRB03KT BECMG
             2509/2512 03012KT=
TAF     LSMM 240925Z 2410/2516 08012KT 9999 FEW008 SCT035 BKN050
             BECMG 2414/2417 CAVOK BECMG 2419/2422 VRB03KT BECMG
             2508/2511 03012KT=
TAF     LSMP 240925Z 2410/2516 07010G25KT 9999 FEW030 BKN045 BECMG
             2412/2414 CAVOK BECMG 2419/2421 05010KT BECMG
             2510/2512 06015G25KT=
aggiornamento lunedì 24 settembre 2018 ore 15:02